Time;durP1;ratioP1;P1;durP2;ratioP2;P2;SDS_P1;SDS_P2;PMS_P1;PMS_P2;Temp;Humidity;BMP_temperature;BMP_pressure;BME280_temperature;BME280_humidity;BME280_pressure;Samples;Min_cycle;Max_cycle;Signal;HPM_P1;HPM_P2
2023/01/14 00:01:29;;;;;;;12.02;2.22;;;6.90;92.70;;;;;;5027972;28;20034;-46
2023/01/14 00:03:55;;;;;;;18.85;3.15;;;6.90;92.60;;;;;;5026607;28;20104;-50
2023/01/14 00:06:25;;;;;;;19.60;3.28;;;6.90;92.70;;;;;;5034617;28;20049;-55
2023/01/14 00:09:00;;;;;;;11.05;2.78;;;6.90;92.70;;;;;;5022537;28;20424;-51
2023/01/14 00:14:14;;;;;;;7.75;1.30;;;6.70;91.90;;;;;;5014754;28;20040;-49
2023/01/14 00:16:48;;;;;;;12.25;1.85;;;6.60;91.70;;;;;;5014646;28;20188;-52
2023/01/14 00:19:18;;;;;;;12.90;2.13;;;6.60;91.80;;;;;;5023590;28;20025;-50
2023/01/14 00:21:45;;;;;;;16.17;3.28;;;6.60;92.00;;;;;;5031602;28;20037;-49
2023/01/14 00:24:13;;;;;;;13.05;3.10;;;6.70;92.50;;;;;;5015961;28;20022;-49
2023/01/14 00:26:43;;;;;;;14.73;4.22;;;6.80;92.70;;;;;;5013654;28;20025;-47
2023/01/14 00:29:24;;;;;;;12.90;2.92;;;6.80;92.80;;;;;;5026932;28;20052;-48
2023/01/14 00:31:57;;;;;;;15.10;3.03;;;6.90;92.80;;;;;;5028728;28;20087;-59
2023/01/14 00:34:27;;;;;;;15.32;2.85;;;6.80;92.80;;;;;;5025927;28;20484;-63
2023/01/14 00:36:56;;;;;;;15.48;2.53;;;6.80;92.80;;;;;;5031929;28;20033;-61
2023/01/14 00:39:24;;;;;;;12.55;2.70;;;6.80;92.80;;;;;;5023000;28;20069;-61
2023/01/14 00:41:51;;;;;;;10.65;2.55;;;6.80;92.80;;;;;;5034365;28;20033;-62
2023/01/14 00:44:19;;;;;;;18.25;2.90;;;6.70;93.00;;;;;;5034098;28;20068;-61
2023/01/14 00:46:46;;;;;;;12.15;2.67;;;6.70;93.10;;;;;;5028779;28;20032;-66
2023/01/14 00:49:21;;;;;;;13.48;2.83;;;6.70;93.20;;;;;;5021219;28;20040;-65
2023/01/14 00:51:50;;;;;;;9.65;2.50;;;6.70;93.30;;;;;;5034007;28;20056;-64
2023/01/14 00:54:18;;;;;;;13.82;2.53;;;6.60;93.40;;;;;;5019788;28;20329;-62
2023/01/14 00:56:46;;;;;;;15.48;3.88;;;6.70;93.50;;;;;;5014206;28;20025;-60
2023/01/14 00:59:18;;;;;;;10.40;2.47;;;6.70;93.50;;;;;;5030009;28;20454;-55
2023/01/14 01:01:44;;;;;;;13.45;3.60;;;6.70;93.60;;;;;;5024231;28;20041;-55
2023/01/14 01:04:12;;;;;;;12.07;3.00;;;6.70;93.60;;;;;;5017295;28;20332;-57
2023/01/14 01:06:38;;;;;;;12.15;2.65;;;6.60;93.50;;;;;;5013509;28;20037;-52
2023/01/14 01:09:05;;;;;;;15.60;2.67;;;6.60;93.50;;;;;;5013824;28;20026;-52
2023/01/14 01:11:33;;;;;;;11.80;2.75;;;6.60;93.40;;;;;;5024473;28;20049;-52
2023/01/14 01:14:00;;;;;;;15.38;3.58;;;6.50;93.40;;;;;;5016150;28;20091;-50
2023/01/14 01:16:27;;;;;;;11.20;2.42;;;6.50;93.30;;;;;;5028165;28;20029;-53
2023/01/14 01:18:55;;;;;;;9.95;2.75;;;6.50;93.30;;;;;;5030569;28;20124;-52
2023/01/14 01:21:23;;;;;;;15.85;2.80;;;6.40;93.20;;;;;;5019563;28;20037;-50
2023/01/14 01:23:50;;;;;;;11.93;2.22;;;6.30;93.20;;;;;;5029432;28;20026;-52
2023/01/14 01:26:23;;;;;;;8.93;2.20;;;6.30;93.20;;;;;;5018313;28;20105;-49
2023/01/14 01:28:58;;;;;;;11.52;2.05;;;6.20;93.20;;;;;;5031273;28;20037;-51
2023/01/14 01:31:29;;;;;;;17.95;3.63;;;6.20;93.10;;;;;;5024690;28;20038;-50
2023/01/14 01:33:56;;;;;;;13.05;2.35;;;6.20;93.20;;;;;;5013474;28;20515;-53
2023/01/14 01:36:27;;;;;;;12.43;2.40;;;6.10;93.20;;;;;;5032164;28;20037;-49
2023/01/14 01:38:55;;;;;;;13.80;3.67;;;6.00;93.20;;;;;;5032749;28;20064;-55
2023/01/14 01:41:39;;;;;;;12.00;1.75;;;6.00;92.90;;;;;;5018358;28;20486;-48
2023/01/14 01:44:14;;;;;;;8.45;1.98;;;5.90;93.00;;;;;;5011896;28;20428;-54
2023/01/14 01:46:41;;;;;;;6.10;1.55;;;5.90;92.90;;;;;;5011243;28;20373;-51
2023/01/14 01:49:17;;;;;;;7.80;1.60;;;5.90;92.90;;;;;;5012176;28;20664;-48
2023/01/14 01:51:58;;;;;;;5.50;1.20;;;5.90;92.90;;;;;;5032841;28;20044;-53
2023/01/14 01:54:29;;;;;;;10.07;1.55;;;5.80;92.90;;;;;;5023321;28;20026;-52
2023/01/14 01:56:57;;;;;;;18.73;1.83;;;5.80;92.90;;;;;;5015922;28;20137;-50
2023/01/14 01:59:31;;;;;;;6.13;1.40;;;5.80;93.10;;;;;;5031205;28;20442;-51
2023/01/14 02:01:57;;;;;;;5.18;1.10;;;5.90;93.20;;;;;;5027151;28;20053;-48
2023/01/14 02:04:23;;;;;;;9.85;1.70;;;5.90;93.20;;;;;;5020225;28;20061;-51
2023/01/14 02:06:50;;;;;;;8.82;1.80;;;6.00;93.30;;;;;;5027801;28;20107;-48
2023/01/14 02:09:23;;;;;;;7.78;1.63;;;6.10;93.40;;;;;;5030459;28;20022;-51
2023/01/14 02:12:27;;;;;;;7.75;1.92;;;6.10;93.50;;;;;;5013463;28;20022;-50
2023/01/14 02:15:16;;;;;;;8.63;1.38;;;6.20;93.40;;;;;;5017070;28;20026;-50
2023/01/14 02:18:23;;;;;;;6.85;1.48;;;6.30;93.50;;;;;;5032272;28;20822;-47
2023/01/14 02:21:02;;;;;;;6.05;1.48;;;6.30;93.50;;;;;;5021012;28;20053;-47
2023/01/14 02:23:46;;;;;;;8.25;1.27;;;6.40;93.40;;;;;;5031842;28;20451;-47
2023/01/14 02:26:29;;;;;;;6.05;1.40;;;6.40;93.30;;;;;;5032076;28;20025;-50
2023/01/14 02:29:32;;;;;;;8.65;1.77;;;6.40;93.00;;;;;;5020213;28;20348;-50
2023/01/14 02:32:38;;;;;;;7.10;1.83;;;6.40;93.00;;;;;;5011945;28;20498;-59
2023/01/14 02:35:25;;;;;;;8.25;1.95;;;6.40;93.10;;;;;;5026511;28;20927;-58
2023/01/14 02:38:28;;;;;;;13.02;3.00;;;6.50;93.20;;;;;;5013062;28;20444;-54
2023/01/14 02:41:20;;;;;;;9.73;2.00;;;6.40;93.20;;;;;;5024896;28;20140;-55
2023/01/14 02:47:02;;;;;;;7.93;2.30;;;6.30;93.00;;;;;;5022645;28;20048;-52
2023/01/14 02:49:36;;;;;;;12.35;3.60;;;6.30;93.10;;;;;;5012664;28;20022;-55
2023/01/14 02:52:06;;;;;;;9.57;3.00;;;6.20;93.10;;;;;;5028979;28;20069;-51
2023/01/14 02:54:33;;;;;;;12.02;3.20;;;6.20;93.20;;;;;;5023998;28;20305;-50
2023/01/14 02:57:32;;;;;;;10.50;2.72;;;6.30;93.30;;;;;;5030672;28;20025;-55
2023/01/14 03:00:44;;;;;;;13.40;2.75;;;6.30;93.40;;;;;;5020999;28;20034;-51
2023/01/14 03:03:37;;;;;;;11.73;2.38;;;6.20;93.40;;;;;;5021594;28;20540;-51
2023/01/14 03:06:14;;;;;;;11.13;2.53;;;6.20;93.30;;;;;;5029044;28;20066;-50
2023/01/14 03:09:11;;;;;;;10.88;2.67;;;6.20;93.40;;;;;;5030195;28;20104;-49
2023/01/14 03:11:55;;;;;;;13.93;2.55;;;6.20;93.50;;;;;;5027482;28;20021;-52
2023/01/14 03:14:32;;;;;;;17.10;4.97;;;6.20;93.50;;;;;;5031365;28;20018;-50
2023/01/14 03:17:13;;;;;;;17.58;2.90;;;6.30;93.60;;;;;;5027148;28;20029;-48
2023/01/14 03:19:47;;;;;;;16.90;2.72;;;6.30;93.60;;;;;;5029212;28;20036;-55
2023/01/14 03:22:14;;;;;;;11.05;2.78;;;6.30;93.40;;;;;;5031441;28;20021;-49
2023/01/14 03:24:44;;;;;;;11.35;3.75;;;6.20;93.30;;;;;;5022552;28;20097;-53
2023/01/14 03:27:23;;;;;;;20.38;3.58;;;6.20;93.30;;;;;;5012796;28;20048;-48
2023/01/14 03:30:03;;;;;;;16.92;2.70;;;6.20;93.20;;;;;;5015701;28;20025;-49
2023/01/14 03:33:05;;;;;;;11.73;3.08;;;6.20;93.30;;;;;;5035270;28;20504;-51
2023/01/14 03:35:38;;;;;;;17.35;3.05;;;6.20;93.40;;;;;;5033885;28;20049;-50
2023/01/14 03:38:18;;;;;;;18.17;3.42;;;6.30;93.40;;;;;;5018982;28;20030;-48
2023/01/14 03:40:47;;;;;;;;;;;6.30;93.40;;;;;;5015861;28;20042;-49
2023/01/14 03:43:39;;;;;;;15.77;2.90;;;6.30;93.50;;;;;;5024228;28;19912;-47
2023/01/14 03:46:08;;;;;;;22.48;3.88;;;6.40;93.50;;;;;;5032551;28;20036;-47
2023/01/14 03:48:36;;;;;;;20.08;4.22;;;6.40;93.40;;;;;;5024570;28;20029;-48
2023/01/14 03:51:27;;;;;;;14.73;3.17;;;6.40;93.40;;;;;;5031207;28;20037;-51
2023/01/14 03:54:26;;;;;;;25.00;6.20;;;6.40;93.40;;;;;;5032505;28;20316;-47
2023/01/14 03:57:13;;;;;;;23.17;4.32;;;6.40;93.30;;;;;;5034016;28;20026;-49
2023/01/14 03:59:58;;;;;;;21.98;4.40;;;6.40;93.30;;;;;;5015616;28;20026;-47
2023/01/14 04:02:29;;;;;;;14.13;3.22;;;6.40;93.30;;;;;;5026233;28;20049;-48
2023/01/14 04:04:58;;;;;;;19.05;3.17;;;6.40;93.10;;;;;;5015156;28;20072;-47
2023/01/14 04:07:25;;;;;;;16.65;3.35;;;6.40;93.10;;;;;;5029433;28;20030;-50
2023/01/14 04:09:52;;;;;;;20.65;4.32;;;6.30;93.00;;;;;;5035086;28;20029;-48
2023/01/14 04:12:19;;;;;;;21.85;4.55;;;6.30;93.00;;;;;;5022520;28;20038;-51
2023/01/14 04:17:33;;;;;;;16.25;4.05;;;6.20;92.90;;;;;;5033785;28;20042;-47
2023/01/14 04:20:00;;;;;;;22.92;3.45;;;6.10;92.90;;;;;;5024074;28;20030;-52
2023/01/14 04:22:26;;;;;;;18.42;3.67;;;6.10;92.90;;;;;;5028178;28;20041;-51
2023/01/14 04:24:53;;;;;;;17.17;3.88;;;6.00;92.90;;;;;;5021096;28;20042;-48
2023/01/14 04:27:20;;;;;;;26.05;3.75;;;6.00;92.90;;;;;;5025821;28;20029;-47
2023/01/14 04:29:47;;;;;;;18.27;3.63;;;6.00;93.00;;;;;;5034285;28;20116;-49
2023/01/14 04:32:14;;;;;;;16.35;5.65;;;5.90;93.00;;;;;;5015131;28;20026;-48
2023/01/14 04:34:41;;;;;;;25.27;4.00;;;6.00;93.10;;;;;;5013536;28;20483;-48
2023/01/14 04:37:07;;;;;;;13.50;3.08;;;6.00;93.10;;;;;;5012037;28;20041;-50
2023/01/14 04:39:34;;;;;;;19.67;4.03;;;6.00;93.20;;;;;;5012975;28;20045;-48
2023/01/14 04:44:47;;;;;;;19.52;4.13;;;6.10;93.20;;;;;;5014592;28;20129;-48
2023/01/14 04:47:17;;;;;;;16.38;3.95;;;6.20;93.30;;;;;;5019476;28;20454;-47
2023/01/14 04:49:44;;;;;;;25.58;4.53;;;6.20;93.40;;;;;;5033053;28;20499;-48
2023/01/14 04:52:11;;;;;;;18.13;3.05;;;6.20;93.40;;;;;;5029967;28;20057;-53
2023/01/14 04:54:36;;;;;;;24.45;4.13;;;6.30;93.30;;;;;;5014229;28;20399;-45
2023/01/14 04:57:03;;;;;;;17.17;4.40;;;6.30;93.20;;;;;;5014305;28;20097;-46
2023/01/14 04:59:30;;;;;;;22.77;5.60;;;6.40;93.10;;;;;;5025382;28;20033;-46
2023/01/14 05:01:56;;;;;;;14.30;3.70;;;6.40;92.90;;;;;;5027845;28;20034;-49
2023/01/14 05:04:23;;;;;;;19.35;3.90;;;6.40;92.80;;;;;;5016863;28;20032;-45
2023/01/14 05:06:49;;;;;;;19.15;3.90;;;6.40;92.60;;;;;;5031926;28;20041;-46
2023/01/14 05:09:16;;;;;;;16.73;4.35;;;6.30;92.40;;;;;;5016179;28;20061;-48
2023/01/14 05:11:46;;;;;;;16.85;2.97;;;6.30;92.30;;;;;;5013867;28;20022;-49
2023/01/14 05:14:11;;;;;;;16.08;5.38;;;6.30;92.20;;;;;;5013648;28;20033;-46
2023/01/14 05:16:38;;;;;;;18.60;3.88;;;6.30;92.20;;;;;;5030762;28;20038;-47
2023/01/14 05:19:07;;;;;;;23.15;4.32;;;6.30;92.10;;;;;;5013920;28;20026;-50
2023/01/14 05:21:33;;;;;;;14.98;2.75;;;6.30;92.00;;;;;;5014166;28;20542;-49
2023/01/14 05:24:00;;;;;;;24.25;4.90;;;6.20;91.90;;;;;;5030921;28;20033;-46
2023/01/14 05:26:26;;;;;;;20.15;3.40;;;6.10;91.80;;;;;;5028220;28;20046;-48
2023/01/14 05:28:53;;;;;;;20.95;3.42;;;6.20;91.80;;;;;;5013864;28;20022;-46
2023/01/14 05:31:20;;;;;;;22.27;3.70;;;6.10;91.80;;;;;;5014057;28;20336;-49
2023/01/14 05:33:47;;;;;;;14.75;3.58;;;6.00;91.70;;;;;;5026523;28;20406;-49
2023/01/14 05:36:13;;;;;;;21.88;4.57;;;5.90;91.60;;;;;;5012887;28;20040;-49
2023/01/14 05:38:40;;;;;;;20.70;3.67;;;5.90;91.70;;;;;;5023965;28;20382;-47
2023/01/14 05:41:12;;;;;;;14.27;3.50;;;5.90;91.70;;;;;;5031714;28;20029;-51
2023/01/14 05:46:24;;;;;;;18.67;2.88;;;5.80;91.80;;;;;;5031375;28;20036;-49
2023/01/14 05:48:50;;;;;;;12.57;3.80;;;5.80;91.90;;;;;;5027819;28;20138;-49
2023/01/14 05:51:17;;;;;;;16.42;4.60;;;5.70;92.00;;;;;;5012680;28;20061;-49
2023/01/14 05:53:44;;;;;;;14.43;3.55;;;5.70;92.00;;;;;;5023687;28;20454;-48
2023/01/14 05:56:11;;;;;;;16.50;3.35;;;5.70;92.20;;;;;;5027824;28;20025;-48
2023/01/14 05:58:37;;;;;;;14.68;3.70;;;5.70;92.10;;;;;;5013158;28;20221;-49
2023/01/14 06:06:51;;;;;;;19.98;3.55;;;5.60;92.30;;;;;;5029651;28;20044;-47
2023/01/14 06:09:19;;;;;;;17.90;3.58;;;5.70;92.40;;;;;;5030629;28;20478;-52
2023/01/14 06:11:50;;;;;;;19.58;3.35;;;5.70;92.50;;;;;;5032738;28;20489;-47
2023/01/14 06:14:16;;;;;;;11.98;2.92;;;5.70;92.30;;;;;;5030407;28;20454;-47
2023/01/14 06:16:42;;;;;;;25.42;3.90;;;5.70;92.30;;;;;;5029782;28;20036;-48
2023/01/14 06:19:10;;;;;;;15.73;4.95;;;5.50;92.10;;;;;;5026034;28;20397;-48
2023/01/14 06:21:36;;;;;;;14.55;3.80;;;5.50;92.20;;;;;;5026876;28;20110;-49
2023/01/14 06:24:04;;;;;;;20.80;3.47;;;5.60;92.30;;;;;;5028925;28;20045;-50
2023/01/14 06:26:32;;;;;;;15.90;3.25;;;5.50;92.20;;;;;;5019032;28;20037;-47
2023/01/14 06:29:02;;;;;;;15.60;3.40;;;5.50;92.10;;;;;;5032633;28;20033;-50
2023/01/14 06:31:29;;;;;;;17.83;3.50;;;5.50;92.00;;;;;;5032277;28;20030;-52
2023/01/14 06:33:57;;;;;;;13.63;2.83;;;5.50;92.10;;;;;;5030105;28;20060;-49
2023/01/14 06:36:23;;;;;;;23.02;3.90;;;5.40;92.10;;;;;;5029411;28;20117;-48
2023/01/14 06:38:49;;;;;;;13.68;3.15;;;5.40;92.20;;;;;;5029277;28;20078;-51
2023/01/14 06:41:16;;;;;;;20.85;3.75;;;5.50;92.20;;;;;;5030502;28;20080;-47
2023/01/14 06:43:44;;;;;;;14.40;4.05;;;5.50;92.20;;;;;;5029614;28;20199;-51
2023/01/14 06:46:14;;;;;;;12.00;2.83;;;5.50;92.10;;;;;;5030330;28;20029;-51
2023/01/14 06:48:43;;;;;;;18.65;4.38;;;5.50;92.10;;;;;;5029926;28;20124;-53
2023/01/14 06:51:20;;;;;;;23.50;3.33;;;5.40;92.10;;;;;;5032165;28;20450;-51
2023/01/14 06:53:47;;;;;;;15.43;3.33;;;5.40;92.20;;;;;;5029944;28;20029;-49
2023/01/14 06:56:17;;;;;;;14.10;2.90;;;5.40;92.10;;;;;;5018186;28;20329;-49
2023/01/14 06:58:48;;;;;;;16.23;3.55;;;5.40;92.20;;;;;;5011266;28;20041;-50
2023/01/14 07:01:19;;;;;;;12.77;3.53;;;5.40;92.10;;;;;;5012475;28;20034;-51
2023/01/14 07:03:46;;;;;;;22.85;4.90;;;5.50;92.20;;;;;;5030682;28;20049;-50
2023/01/14 07:06:12;;;;;;;13.00;2.90;;;5.50;92.20;;;;;;5028714;28;20120;-50
2023/01/14 07:08:38;;;;;;;20.90;3.15;;;5.40;92.20;;;;;;5028850;28;20116;-47
2023/01/14 07:11:05;;;;;;;18.70;4.65;;;5.50;92.40;;;;;;5045083;28;20029;-47
2023/01/14 07:13:33;;;;;;;14.55;3.92;;;5.50;92.50;;;;;;5041869;28;20616;-51
2023/01/14 07:16:00;;;;;;;11.98;2.95;;;5.60;92.30;;;;;;5034076;28;20021;-47
2023/01/14 07:18:27;;;;;;;11.95;2.88;;;5.50;92.20;;;;;;5018153;28;20061;-51
2023/01/14 07:20:56;;;;;;;21.05;3.55;;;5.50;92.30;;;;;;5031501;28;20064;-51
2023/01/14 07:23:24;;;;;;;15.55;3.35;;;5.50;92.30;;;;;;5018953;28;20033;-52
2023/01/14 07:25:55;;;;;;;21.70;5.03;;;5.50;92.30;;;;;;5033323;28;20470;-47
2023/01/14 07:28:27;;;;;;;16.95;3.35;;;5.50;92.30;;;;;;5034044;28;20387;-47
2023/01/14 07:30:54;;;;;;;12.93;2.88;;;5.50;92.40;;;;;;5034389;28;20038;-49
2023/01/14 07:33:22;;;;;;;18.40;3.85;;;5.50;92.40;;;;;;5022956;28;20091;-47
2023/01/14 07:35:51;;;;;;;18.52;4.03;;;5.50;92.40;;;;;;5034943;28;20029;-49
2023/01/14 07:38:23;;;;;;;17.73;3.60;;;5.60;92.40;;;;;;5033286;28;20029;-47
2023/01/14 07:40:50;;;;;;;15.35;3.63;;;5.50;92.40;;;;;;5034235;28;20064;-47
2023/01/14 07:43:16;;;;;;;15.65;4.13;;;5.50;92.40;;;;;;5032136;28;20100;-48
2023/01/14 07:45:42;;;;;;;20.73;3.90;;;5.50;92.40;;;;;;5034485;28;20091;-49
2023/01/14 07:48:09;;;;;;;12.23;3.67;;;5.50;92.50;;;;;;5031813;28;20032;-48
2023/01/14 07:50:36;;;;;;;17.02;4.30;;;5.50;92.70;;;;;;5015964;28;20025;-46
2023/01/14 07:53:03;;;;;;;15.60;4.18;;;5.50;92.60;;;;;;5031283;28;20021;-50
2023/01/14 07:55:30;;;;;;;20.05;5.53;;;5.60;92.70;;;;;;5033004;28;20068;-47
2023/01/14 07:57:57;;;;;;;23.38;4.47;;;5.50;92.60;;;;;;5034458;28;20143;-47
2023/01/14 08:00:28;;;;;;;18.63;5.50;;;5.60;92.70;;;;;;5029982;28;20034;-49
2023/01/14 08:02:56;;;;;;;14.60;3.83;;;5.60;92.70;;;;;;5031798;28;20048;-51
2023/01/14 08:05:23;;;;;;;17.48;4.15;;;5.60;92.60;;;;;;5034473;28;20442;-47
2023/01/14 08:07:50;;;;;;;25.50;6.40;;;5.70;92.70;;;;;;5026322;28;20026;-49
2023/01/14 08:10:17;;;;;;;21.35;4.93;;;5.70;92.80;;;;;;5025426;28;20100;-47
2023/01/14 08:12:46;;;;;;;27.67;5.10;;;5.70;92.70;;;;;;5035375;28;20039;-48
2023/01/14 08:15:13;;;;;;;22.75;5.93;;;5.70;92.60;;;;;;5026907;28;20393;-46
2023/01/14 08:17:40;;;;;;;16.17;5.30;;;5.70;92.50;;;;;;5029624;28;20026;-48
2023/01/14 08:20:09;;;;;;;22.50;5.40;;;5.70;92.60;;;;;;5033969;28;20029;-48
2023/01/14 08:22:38;;;;;;;22.77;6.70;;;5.70;92.60;;;;;;5032101;28;20029;-47
2023/01/14 08:25:06;;;;;;;29.40;6.60;;;5.70;92.60;;;;;;5032554;28;20041;-48
2023/01/14 08:27:33;;;;;;;26.73;8.80;;;5.70;92.60;;;;;;5021775;28;20044;-46
2023/01/14 08:30:00;;;;;;;24.45;6.55;;;5.70;92.60;;;;;;5033071;28;20497;-48
2023/01/14 08:32:28;;;;;;;22.42;6.20;;;5.70;92.60;;;;;;5029859;28;20026;-47
2023/01/14 08:34:55;;;;;;;24.25;5.13;;;5.70;92.60;;;;;;5030474;28;20045;-48
2023/01/14 08:37:24;;;;;;;26.92;5.65;;;5.70;92.50;;;;;;5015538;28;20108;-49
2023/01/14 08:39:53;;;;;;;19.42;6.07;;;5.70;92.50;;;;;;5031376;28;20128;-47
2023/01/14 08:42:20;;;;;;;25.90;5.78;;;5.80;92.50;;;;;;5013644;28;20037;-51
2023/01/14 08:44:47;;;;;;;19.58;6.13;;;5.70;92.40;;;;;;5014227;28;20040;-47
2023/01/14 08:47:16;;;;;;;21.38;4.70;;;5.80;92.50;;;;;;4997388;28;20026;-45
2023/01/14 08:49:44;;;;;;;29.10;6.43;;;5.80;92.50;;;;;;5014440;28;20156;-48
2023/01/14 08:52:11;;;;;;;23.73;6.13;;;5.80;92.50;;;;;;5031515;28;20030;-44
2023/01/14 08:54:38;;;;;;;20.40;5.68;;;5.80;92.50;;;;;;5026350;28;20017;-46
2023/01/14 08:57:06;;;;;;;25.17;5.30;;;5.90;92.40;;;;;;5031727;28;20052;-44
2023/01/14 08:59:35;;;;;;;21.13;5.45;;;5.90;92.30;;;;;;5033232;28;20033;-44
2023/01/14 09:02:01;;;;;;;26.90;5.35;;;5.90;92.30;;;;;;5032014;28;20434;-45
2023/01/14 09:04:28;;;;;;;28.20;8.82;;;5.90;92.30;;;;;;5020207;28;20026;-49
2023/01/14 09:18:02;;;;;;;23.42;5.93;;;6.00;92.00;;;;;;5033271;28;20494;-43
2023/01/14 09:20:38;;;;;;;27.33;7.57;;;6.00;92.00;;;;;;5020134;28;20037;-47
2023/01/14 09:23:08;;;;;;;27.38;6.15;;;6.00;91.90;;;;;;5013739;28;20107;-48
2023/01/14 09:25:34;;;;;;;18.02;6.75;;;6.00;91.90;;;;;;5031235;28;20361;-47
2023/01/14 09:28:01;;;;;;;22.50;6.00;;;6.00;92.00;;;;;;5032328;28;20518;-45
2023/01/14 09:30:29;;;;;;;26.50;5.93;;;6.00;91.90;;;;;;5033183;28;20451;-46
2023/01/14 09:32:55;;;;;;;23.17;6.50;;;6.10;92.00;;;;;;5032540;28;20037;-44
2023/01/14 09:35:22;;;;;;;25.30;5.63;;;6.10;92.00;;;;;;5021940;28;20037;-47
2023/01/14 09:37:49;;;;;;;28.60;6.65;;;6.10;92.10;;;;;;5013940;28;20140;-47
2023/01/14 09:40:16;;;;;;;31.67;6.35;;;6.10;92.10;;;;;;5012681;28;20065;-50
2023/01/14 09:42:49;;;;;;;25.08;5.93;;;6.10;92.20;;;;;;5017951;28;20040;-47
2023/01/14 09:45:31;;;;;;;33.38;5.43;;;6.10;92.20;;;;;;5016606;28;20036;-44
2023/01/14 09:48:05;;;;;;;25.73;8.50;;;6.10;92.30;;;;;;5033388;28;20104;-46
2023/01/14 09:51:01;;;;;;;33.08;8.13;;;6.10;92.30;;;;;;5032072;28;20367;-45
2023/01/14 09:54:04;;;;;;;29.98;5.90;;;6.10;92.30;;;;;;5012563;28;20053;-50
2023/01/14 09:57:13;;;;;;;24.67;6.07;;;6.20;92.40;;;;;;5025195;28;20025;-55
2023/01/14 10:00:16;;;;;;;22.35;7.78;;;6.20;92.50;;;;;;5012312;28;20053;-61
2023/01/14 10:02:55;;;;;;;24.40;6.18;;;6.20;92.50;;;;;;5011921;28;20061;-63
2023/01/14 10:05:28;;;;;;;22.65;4.72;;;6.20;92.50;;;;;;5028695;28;20034;-64
2023/01/14 10:07:57;;;;;;;33.17;6.65;;;6.20;92.50;;;;;;5017234;28;20451;-65
2023/01/14 10:10:43;;;;;;;23.60;6.28;;;6.20;92.60;;;;;;5030438;28;20033;-65
2023/01/14 10:13:32;;;;;;;26.35;8.40;;;6.20;92.60;;;;;;5020677;28;20030;-65
2023/01/14 10:16:16;;;;;;;23.48;6.28;;;6.30;92.70;;;;;;5013173;28;20026;-65
2023/01/14 10:19:03;;;;;;;26.48;8.10;;;6.20;92.70;;;;;;5012890;28;20116;-65
2023/01/14 10:22:17;;;;;;;27.67;8.95;;;6.20;92.90;;;;;;5025239;28;20045;-65
2023/01/14 10:24:44;;;;;;;28.65;8.18;;;6.20;93.10;;;;;;5031472;28;20049;-64
2023/01/14 10:27:16;;;;;;;23.75;7.57;;;6.20;93.10;;;;;;5031661;28;20309;-65
2023/01/14 10:29:45;;;;;;;28.50;8.20;;;6.20;93.20;;;;;;5018869;28;20481;-65
2023/01/14 10:32:15;;;;;;;33.25;8.00;;;6.20;93.30;;;;;;5013223;28;20037;-65
2023/01/14 10:34:56;;;;;;;31.65;8.02;;;6.20;93.40;;;;;;5027799;28;20410;-65
2023/01/14 10:37:22;;;;;;;25.65;7.68;;;6.20;93.40;;;;;;5033870;28;20044;-64
2023/01/14 10:39:52;;;;;;;25.02;8.32;;;6.20;93.50;;;;;;5022357;28;20045;-65
2023/01/14 10:42:26;;;;;;;24.30;7.43;;;6.20;93.50;;;;;;5027804;28;20095;-64
2023/01/14 10:44:54;;;;;;;19.40;6.78;;;6.20;93.50;;;;;;5034336;28;20038;-64
2023/01/14 10:47:24;;;;;;;30.42;8.25;;;6.30;93.50;;;;;;5036243;28;20469;-64
2023/01/14 10:50:27;;;;;;;21.48;7.40;;;6.30;93.50;;;;;;5035381;28;20447;-64
2023/01/14 10:53:04;;;;;;;21.42;8.23;;;6.30;93.50;;;;;;5016247;28;20160;-65
2023/01/14 10:55:34;;;;;;;31.13;7.28;;;6.30;93.50;;;;;;5035054;28;20060;-64
2023/01/14 10:58:13;;;;;;;18.52;6.05;;;6.30;93.50;;;;;;5025788;28;20030;-63
2023/01/14 11:00:47;;;;;;;26.92;7.68;;;6.30;93.60;;;;;;5019571;28;20072;-64
2023/01/14 11:03:26;;;;;;;21.98;6.68;;;6.30;93.60;;;;;;5033738;28;20053;-65
2023/01/14 11:06:04;;;;;;;25.48;6.20;;;6.30;93.60;;;;;;5035040;28;20022;-64
2023/01/14 11:08:52;;;;;;;27.77;7.55;;;6.30;93.60;;;;;;5032454;28;20443;-64
2023/01/14 11:11:25;;;;;;;20.83;4.68;;;6.30;93.60;;;;;;5030144;28;20132;-64
2023/01/14 11:13:54;;;;;;;25.17;6.10;;;6.40;93.60;;;;;;5029173;28;20029;-64
2023/01/14 11:16:27;;;;;;;16.60;5.07;;;6.40;93.60;;;;;;5035930;28;20029;-64
2023/01/14 11:19:25;;;;;;;19.50;4.65;;;6.40;93.60;;;;;;5036005;28;20053;-64
2023/01/14 11:21:54;;;;;;;16.65;4.85;;;6.40;93.60;;;;;;5018924;28;20042;-63
2023/01/14 11:24:40;;;;;;;21.98;4.75;;;6.30;93.70;;;;;;5034089;28;20124;-63
2023/01/14 11:27:16;;;;;;;26.73;7.95;;;6.30;93.80;;;;;;5035710;28;20026;-62
2023/01/14 11:29:55;;;;;;;13.95;4.53;;;6.40;93.80;;;;;;5034832;28;20105;-62
2023/01/14 11:32:24;;;;;;;16.73;4.88;;;6.40;93.70;;;;;;5014963;28;20025;-63
2023/01/14 11:35:02;;;;;;;16.50;4.90;;;6.40;93.70;;;;;;5033622;28;20033;-63
2023/01/14 11:37:41;;;;;;;16.67;4.68;;;6.40;93.70;;;;;;5025941;28;20127;-64
2023/01/14 11:43:21;;;;;;;13.57;4.45;;;6.40;93.70;;;;;;5015819;28;20173;-64
2023/01/14 11:46:12;;;;;;;18.95;4.55;;;6.40;93.80;;;;;;5024268;28;20106;-65
2023/01/14 11:48:40;;;;;;;22.83;5.72;;;6.40;93.80;;;;;;5032192;28;20037;-64
2023/01/14 11:51:19;;;;;;;13.00;4.35;;;6.40;93.80;;;;;;5026487;28;20033;-64
2023/01/14 11:54:03;;;;;;;15.38;6.00;;;6.50;93.80;;;;;;5025108;28;20029;-64
2023/01/14 11:56:50;;;;;;;16.25;3.95;;;6.50;93.80;;;;;;5028576;28;20033;-63
2023/01/14 11:59:37;;;;;;;13.15;3.53;;;6.50;93.90;;;;;;5032010;28;20358;-64
2023/01/14 12:02:24;;;;;;;9.40;3.35;;;6.60;93.90;;;;;;5034242;28;20379;-64
2023/01/14 12:05:05;;;;;;;13.27;3.67;;;6.60;93.80;;;;;;5029629;28;20036;-64
2023/01/14 12:07:53;;;;;;;12.95;2.65;;;6.50;93.80;;;;;;5024951;28;20394;-62
2023/01/14 12:10:31;;;;;;;14.82;4.40;;;6.60;93.90;;;;;;5029639;28;20471;-61
2023/01/14 12:16:59;;;;;;;11.60;3.92;;;6.60;94.00;;;;;;5029963;28;20067;-59
2023/01/14 12:19:45;;;;;;;11.23;2.80;;;6.60;93.90;;;;;;5014130;28;20052;-61
2023/01/14 12:22:24;;;;;;;9.10;3.50;;;6.60;94.00;;;;;;5025358;28;20049;-61
2023/01/14 12:24:55;;;;;;;6.27;2.63;;;6.60;94.00;;;;;;5031791;28;20041;-62
2023/01/14 12:27:42;;;;;;;9.13;3.13;;;6.60;94.10;;;;;;5023889;28;20398;-62
2023/01/14 12:30:47;;;;;;;8.80;3.33;;;6.70;94.10;;;;;;5026365;28;20033;-63
2023/01/14 12:33:31;;;;;;;9.80;3.08;;;6.70;94.00;;;;;;5037713;28;20025;-65
2023/01/14 12:36:35;;;;;;;7.43;2.83;;;6.70;94.00;;;;;;5031112;28;20036;-64
2023/01/14 12:45:56;;;;;;;11.77;2.92;;;6.90;94.00;;;;;;5032482;28;20059;-63
2023/01/14 12:47:58;;;;;;;12.43;2.70;;;6.90;93.90;;;;;;5018325;28;20046;-64
2023/01/14 12:50:26;;;;;;;9.90;2.92;;;6.90;94.00;;;;;;5025983;28;20028;-65
2023/01/14 12:52:53;;;;;;;6.95;2.65;;;6.80;94.00;;;;;;5050160;28;20036;-64
2023/01/14 12:55:39;;;;;;;10.38;3.30;;;6.90;94.10;;;;;;5031423;28;20033;-64
2023/01/14 12:58:14;;;;;;;4.60;2.55;;;6.80;94.00;;;;;;5034062;28;20026;-64
2023/01/14 13:00:48;;;;;;;5.47;2.33;;;6.80;94.10;;;;;;5051370;28;20091;-64
2023/01/14 13:03:20;;;;;;;7.30;2.63;;;6.80;94.10;;;;;;5048862;28;20055;-64
2023/01/14 13:05:53;;;;;;;6.30;2.70;;;6.80;94.10;;;;;;5038772;28;20083;-64
2023/01/14 13:08:43;;;;;;;13.32;2.40;;;6.80;94.20;;;;;;5050649;28;20123;-64
2023/01/14 13:11:27;;;;;;;;;;;6.80;94.20;;;;;;5034149;28;20049;-63
2023/01/14 13:14:03;;;;;;;5.15;2.25;;;6.90;94.20;;;;;;5033788;28;19905;-62
2023/01/14 13:16:35;;;;;;;10.15;3.45;;;6.80;94.30;;;;;;5028488;28;20026;-61
2023/01/14 13:19:05;;;;;;;10.82;4.80;;;6.80;94.30;;;;;;5046738;28;20029;-62
2023/01/14 13:22:00;;;;;;;8.38;2.60;;;6.80;94.40;;;;;;5023602;28;20045;-61
2023/01/14 13:24:28;;;;;;;8.82;2.90;;;6.80;94.40;;;;;;5016102;28;20048;-62
2023/01/14 13:26:58;;;;;;;12.10;2.42;;;6.80;94.50;;;;;;5033177;28;20057;-63
2023/01/14 13:29:28;;;;;;;6.10;2.65;;;6.80;94.50;;;;;;5032670;28;20021;-61
2023/01/14 13:31:55;;;;;;;5.95;2.75;;;6.80;94.60;;;;;;5014535;28;20474;-61
2023/01/14 13:34:29;;;;;;;6.30;2.13;;;6.80;94.60;;;;;;5013785;28;20026;-62
2023/01/14 13:37:04;;;;;;;5.55;2.58;;;6.80;94.60;;;;;;5033328;28;20123;-63
2023/01/14 13:39:32;;;;;;;6.43;2.42;;;6.90;94.70;;;;;;5025007;28;20386;-63
2023/01/14 13:42:16;;;;;;;6.93;2.83;;;6.90;94.70;;;;;;5020738;28;20108;-63
2023/01/14 13:44:48;;;;;;;7.75;2.80;;;6.90;94.70;;;;;;5023013;28;20211;-64
2023/01/14 13:47:38;;;;;;;9.27;2.70;;;6.90;94.70;;;;;;5010921;28;20116;-63
2023/01/14 13:50:24;;;;;;;8.77;4.28;;;6.90;94.70;;;;;;5020259;28;20029;-63
2023/01/14 13:53:02;;;;;;;10.48;3.88;;;6.90;94.80;;;;;;5027261;28;20038;-64
2023/01/14 13:55:34;;;;;;;8.80;3.25;;;6.90;94.80;;;;;;5020730;28;20049;-64
2023/01/14 13:58:18;;;;;;;7.80;2.75;;;6.90;94.80;;;;;;5013626;28;20044;-64
2023/01/14 14:01:06;;;;;;;9.60;3.00;;;6.90;94.80;;;;;;5025658;28;20394;-64
2023/01/14 14:03:51;;;;;;;9.35;2.78;;;6.90;94.90;;;;;;5013266;28;20049;-63
2023/01/14 14:06:19;;;;;;;10.77;3.20;;;7.00;94.90;;;;;;5031858;28;20537;-63